Time;durP1;ratioP1;P1;durP2;ratioP2;P2;SDS_P1;SDS_P2;PMS_P1;PMS_P2;Temp;Humidity;BMP_temperature;BMP_pressure;BME280_temperature;BME280_humidity;BME280_pressure;Samples;Min_cycle;Max_cycle;Signal;HPM_P1;HPM_P2
2022/09/14 00:01:42;;;;;;;8.43;2.03;;;;;;;-143.48;64.80;77960.63;5074476;28;20035;-46
2022/09/14 00:04:11;;;;;;;6.85;1.52;;;;;;;-143.48;64.89;77944.75;5056925;28;20033;-48
2022/09/14 00:06:37;;;;;;;10.02;2.00;;;;;;;-143.48;64.25;77932.84;5074224;28;20577;-44
2022/09/14 00:09:07;;;;;;;7.53;1.73;;;;;;;-143.48;64.23;77946.72;5074200;28;20482;-45
2022/09/14 00:11:34;;;;;;;9.02;2.10;;;;;;;-143.48;64.10;77942.78;5073859;28;20048;-45
2022/09/14 00:14:01;;;;;;;6.90;1.70;;;;;;;-143.48;64.30;77948.72;5074008;28;20111;-45
2022/09/14 00:16:31;;;;;;;8.98;1.95;;;;;;;-143.48;63.78;77920.94;5073914;28;20099;-44
2022/09/14 00:19:04;;;;;;;7.88;1.80;;;;;;;-143.48;63.82;77928.88;5073951;28;20059;-44
2022/09/14 00:21:34;;;;;;;5.18;1.90;;;;;;;-143.48;64.37;77936.81;5074235;28;20592;-44
2022/09/14 00:23:59;;;;;;;7.22;1.92;;;;;;;-143.48;64.03;77924.91;5073751;28;20521;-41
2022/09/14 00:26:25;;;;;;;11.30;2.05;;;;;;;-143.48;63.63;77928.88;5073753;28;20017;-43
2022/09/14 00:28:56;;;;;;;12.18;1.85;;;;;;;-143.48;63.34;77917.00;5074354;28;20032;-44
2022/09/14 00:31:23;;;;;;;5.47;1.80;;;;;;;-143.48;63.31;77917.00;5074344;28;20028;-43
2022/09/14 00:33:50;;;;;;;10.43;1.85;;;;;;;-143.48;63.52;77915.00;5055698;28;20475;-45
2022/09/14 00:36:21;;;;;;;8.75;1.90;;;;;;;-143.48;63.79;77934.84;5073764;28;20029;-44
2022/09/14 00:38:47;;;;;;;5.32;1.70;;;;;;;-143.48;63.81;77920.94;5073581;28;20024;-45
2022/09/14 00:41:18;;;;;;;3.95;1.65;;;;;;;-143.48;63.50;77920.94;5073635;28;20036;-43
2022/09/14 00:44:02;;;;;;;6.93;1.50;;;;;;;-143.48;62.97;77911.03;5073558;28;20391;-47
2022/09/14 00:46:49;;;;;;;12.25;2.10;;;;;;;-143.48;63.21;77918.97;5073650;28;20028;-42
2022/09/14 00:49:30;;;;;;;10.13;1.88;;;;;;;-143.48;63.02;77915.00;5073523;28;20025;-44
2022/09/14 00:52:10;;;;;;;7.50;1.50;;;;;;;-143.48;62.93;77905.09;5073435;28;20024;-43
2022/09/14 00:54:42;;;;;;;7.50;1.75;;;;;;;-143.48;62.75;77905.09;5073626;28;20028;-43
2022/09/14 00:57:08;;;;;;;7.38;1.70;;;;;;;-143.48;62.98;77909.06;5055453;28;20029;-42
2022/09/14 00:59:37;;;;;;;6.47;1.65;;;;;;;-143.48;62.74;77895.19;5073408;28;20028;-43
2022/09/14 01:02:04;;;;;;;3.63;1.48;;;;;;;-143.48;62.27;77887.25;5073372;28;20471;-45
2022/09/14 01:04:30;;;;;;;9.05;1.60;;;;;;;-143.48;62.70;77889.22;5073368;28;20020;-43
2022/09/14 01:07:11;;;;;;;6.35;1.40;;;;;;;-143.48;63.17;77893.19;5073359;28;20107;-44
2022/09/14 01:09:55;;;;;;;8.27;1.98;;;;;;;-143.48;62.79;77869.41;5055812;28;20031;-45
2022/09/14 01:12:39;;;;;;;9.05;1.90;;;;;;;-143.48;62.45;77857.50;5073211;28;20144;-43
2022/09/14 01:15:31;;;;;;;7.80;1.50;;;;;;;-143.48;62.30;77849.56;5055206;28;20387;-44
2022/09/14 01:18:20;;;;;;;5.10;1.50;;;;;;;-143.48;61.82;77843.63;5073106;28;20040;-44
2022/09/14 01:21:02;;;;;;;8.55;1.55;;;;;;;-143.48;62.09;77829.75;5073209;28;20039;-43
2022/09/14 01:23:58;;;;;;;7.70;2.28;;;;;;;-143.48;62.64;77855.50;5073800;28;20028;-44
2022/09/14 01:26:45;;;;;;;6.78;1.77;;;;;;;-143.48;62.74;77883.28;5073196;28;20035;-45
2022/09/14 01:29:19;;;;;;;6.53;1.85;;;;;;;-143.48;63.07;77887.25;5073076;28;20082;-45
2022/09/14 01:31:52;;;;;;;10.65;1.90;;;;;;;-143.48;63.26;77881.28;5073387;28;20028;-45
2022/09/14 01:34:20;;;;;;;;;;;;;;;-143.48;63.17;77881.28;5055651;28;20048;-49
2022/09/14 01:36:51;;;;;;;5.32;1.58;;;;;;;-143.48;63.28;77873.38;5055038;28;20006;-47
2022/09/14 01:39:19;;;;;;;4.63;1.55;;;;;;;-143.48;63.90;77869.41;5073636;28;20104;-42
2022/09/14 01:41:46;;;;;;;11.63;1.90;;;;;;;-143.48;63.23;77889.22;5072982;28;20052;-44
2022/09/14 01:44:26;;;;;;;8.68;1.90;;;;;;;-143.48;63.56;77879.31;5055436;28;20078;-44
2022/09/14 01:47:01;;;;;;;6.07;1.65;;;;;;;-143.48;63.63;77885.25;5055016;28;20427;-45
2022/09/14 01:49:36;;;;;;;6.43;2.00;;;;;;;-143.48;63.45;77885.25;5077399;28;20032;-44
2022/09/14 01:52:15;;;;;;;10.05;1.90;;;;;;;-143.48;63.61;77873.38;5076656;28;20055;-42
2022/09/14 01:54:50;;;;;;;9.63;1.73;;;;;;;-143.48;63.34;77873.38;5076616;28;20024;-44
2022/09/14 01:57:26;;;;;;;6.07;1.60;;;;;;;-143.48;63.58;77875.34;5076957;28;20024;-44
2022/09/14 01:59:56;;;;;;;5.15;1.75;;;;;;;-143.48;64.36;77873.38;5076849;28;20029;-44
2022/09/14 02:02:33;;;;;;;5.78;1.80;;;;;;;-143.48;64.68;77869.41;5076534;28;20021;-45
2022/09/14 02:05:07;;;;;;;10.57;1.90;;;;;;;-143.48;65.55;77851.56;5076822;28;20036;-44
2022/09/14 02:07:34;;;;;;;5.53;1.83;;;;;;;-143.48;65.75;77855.50;5076534;28;20028;-44
2022/09/14 02:10:00;;;;;;;7.85;1.90;;;;;;;-143.48;66.51;77861.47;5076341;28;20060;-45
2022/09/14 02:12:26;;;;;;;5.07;1.98;;;;;;;-143.48;66.44;77861.47;5076349;28;20044;-45
2022/09/14 02:14:52;;;;;;;7.03;1.85;;;;;;;-143.48;66.17;77861.47;5058327;28;20033;-45
2022/09/14 02:17:18;;;;;;;8.00;1.83;;;;;;;-143.48;66.67;77863.44;5058403;28;20121;-42
2022/09/14 02:19:50;;;;;;;9.05;1.95;;;;;;;-143.48;66.54;77869.41;5076265;28;20067;-45
2022/09/14 02:22:16;;;;;;;9.98;2.08;;;;;;;-143.48;66.89;77853.53;5058382;28;20020;-43
2022/09/14 02:24:41;;;;;;;6.03;1.80;;;;;;;-143.48;66.38;77855.50;5076172;28;20020;-45
2022/09/14 02:27:07;;;;;;;6.30;2.08;;;;;;;-143.48;66.22;77857.50;5058740;28;20033;-44
2022/09/14 02:29:34;;;;;;;6.18;1.83;;;;;;;-143.48;66.17;77853.53;5058070;28;20050;-43
2022/09/14 02:32:11;;;;;;;7.50;1.95;;;;;;;-143.48;66.59;77849.56;5058758;28;20050;-45
2022/09/14 02:35:10;;;;;;;5.25;2.10;;;;;;;-143.48;66.51;77841.63;5075894;28;20384;-44
2022/09/14 02:38:07;;;;;;;6.43;2.17;;;;;;;-143.48;68.15;77845.59;5075924;28;20499;-44
2022/09/14 02:40:50;;;;;;;5.22;1.98;;;;;;;-143.48;67.83;77839.66;5075889;28;20494;-43
2022/09/14 02:43:23;;;;;;;9.85;2.17;;;;;;;-143.48;67.74;77869.41;5076439;28;20035;-41
2022/09/14 02:46:14;;;;;;;6.05;2.20;;;;;;;-143.48;68.34;77855.50;5076278;28;20099;-43
2022/09/14 02:49:05;;;;;;;9.30;2.10;;;;;;;-143.48;68.61;77857.50;5075029;28;20044;-44
2022/09/14 02:51:40;;;;;;;7.03;2.10;;;;;;;-143.48;69.01;77865.44;5075675;28;20020;-42
2022/09/14 02:54:14;;;;;;;4.35;2.00;;;;;;;-143.48;69.08;77851.56;5075882;28;20040;-45
2022/09/14 02:56:40;;;;;;;7.53;2.10;;;;;;;-143.48;68.32;77851.56;5075550;28;20102;-47
2022/09/14 02:59:05;;;;;;;7.70;2.08;;;;;;;-143.48;68.28;77857.50;5075375;28;20025;-43
2022/09/14 03:01:30;;;;;;;9.68;2.20;;;;;;;-143.48;68.70;77865.44;5075433;28;20078;-43
2022/09/14 03:03:56;;;;;;;10.40;2.55;;;;;;;-143.48;68.61;77865.44;5075797;28;20051;-44
2022/09/14 03:06:22;;;;;;;9.20;2.20;;;;;;;-143.48;69.38;77837.66;5075952;28;20048;-43
2022/09/14 03:08:48;;;;;;;6.43;1.90;;;;;;;-143.48;69.42;77831.72;5075313;28;20033;-45
2022/09/14 03:11:13;;;;;;;8.40;2.00;;;;;;;-143.48;68.50;77831.72;5075221;28;20059;-43
2022/09/14 03:13:39;;;;;;;7.45;2.20;;;;;;;-143.48;69.06;77843.63;5075544;28;20477;-43
2022/09/14 03:16:11;;;;;;;8.65;2.10;;;;;;;-143.48;69.51;77831.72;5075137;28;20501;-45
2022/09/14 03:18:37;;;;;;;7.13;2.17;;;;;;;-143.48;69.48;77839.66;5075169;28;20032;-44
2022/09/14 03:21:07;;;;;;;9.60;2.65;;;;;;;-143.48;69.03;77839.66;5075673;28;20095;-44
2022/09/14 03:23:47;;;;;;;8.68;2.42;;;;;;;-143.48;70.02;77853.53;5075136;28;20027;-45
2022/09/14 03:26:18;;;;;;;6.00;2.08;;;;;;;-143.48;69.14;77853.53;5074994;28;20024;-42
2022/09/14 03:28:44;;;;;;;6.65;2.30;;;;;;;-143.48;69.93;77857.50;5075224;28;20154;-44
2022/09/14 03:31:11;;;;;;;12.32;3.05;;;;;;;-143.48;70.07;77857.50;5075154;28;20103;-44
2022/09/14 03:33:37;;;;;;;8.05;2.25;;;;;;;-143.48;69.99;77831.72;5075184;28;20029;-44
2022/09/14 03:36:13;;;;;;;10.02;2.50;;;;;;;-143.48;69.04;77817.84;5075167;28;20024;-43
2022/09/14 03:38:45;;;;;;;8.65;2.80;;;;;;;-143.48;68.63;77835.69;5075050;28;20039;-43
2022/09/14 03:41:12;;;;;;;6.38;2.20;;;;;;;-143.48;68.45;77817.84;5074713;28;20127;-42
2022/09/14 03:43:37;;;;;;;7.45;2.10;;;;;;;-143.48;69.20;77831.72;5056922;28;20031;-44
2022/09/14 03:46:29;;;;;;;9.85;2.20;;;;;;;-143.48;69.67;77851.56;5074614;28;20021;-44
2022/09/14 03:48:55;;;;;;;9.23;2.55;;;;;;;-143.48;69.17;77819.81;5069738;28;20048;-43
2022/09/14 03:51:20;;;;;;;6.05;2.40;;;;;;;-143.48;69.17;77817.84;5074375;28;20024;-43
2022/09/14 03:53:46;;;;;;;9.13;2.70;;;;;;;-143.48;69.41;77823.78;5074973;28;20103;-43
2022/09/14 03:56:15;;;;;;;5.93;2.40;;;;;;;-143.48;69.15;77821.81;5074619;28;20141;-42
2022/09/14 03:58:40;;;;;;;7.93;2.80;;;;;;;-143.48;69.79;77835.69;5074613;28;20027;-41
2022/09/14 04:01:09;;;;;;;9.93;2.42;;;;;;;-143.48;70.00;77843.63;5074589;28;20020;-42
2022/09/14 04:03:35;;;;;;;9.82;2.60;;;;;;;-143.48;70.33;77839.66;5074509;28;20378;-43
2022/09/14 04:06:04;;;;;;;9.10;2.30;;;;;;;-143.48;70.18;77837.66;5074148;28;20098;-43
2022/09/14 04:08:30;;;;;;;6.45;2.40;;;;;;;-143.48;69.99;77841.63;5074171;28;20020;-43
2022/09/14 04:10:55;;;;;;;6.13;2.35;;;;;;;-143.48;69.96;77851.56;5073365;28;20111;-44
2022/09/14 04:13:20;;;;;;;9.63;2.55;;;;;;;-143.48;69.82;77853.53;5074814;28;20467;-45
2022/09/14 04:15:58;;;;;;;4.70;2.30;;;;;;;-143.48;69.86;77855.50;5074427;28;20029;-45
2022/09/14 04:18:24;;;;;;;9.32;2.50;;;;;;;-143.48;69.92;77849.56;5074537;28;20035;-44
2022/09/14 04:20:57;;;;;;;9.50;2.70;;;;;;;-143.48;69.73;77849.56;5074167;28;20371;-44
2022/09/14 04:23:23;;;;;;;7.90;2.75;;;;;;;-143.48;69.89;77853.53;5074220;28;20086;-43
2022/09/14 04:25:48;;;;;;;7.93;2.65;;;;;;;-143.48;70.33;77855.50;5073736;28;20029;-43
2022/09/14 04:28:13;;;;;;;5.93;2.63;;;;;;;-143.48;70.09;77839.66;5074115;28;20044;-43
2022/09/14 04:30:39;;;;;;;7.20;2.70;;;;;;;-143.48;70.02;77839.66;5074048;28;20020;-43
2022/09/14 04:33:04;;;;;;;10.25;2.95;;;;;;;-143.48;69.71;77829.75;5073764;28;20596;-42
2022/09/14 04:35:29;;;;;;;7.28;2.80;;;;;;;-143.48;69.69;77817.84;5073853;28;20024;-43
2022/09/14 04:37:54;;;;;;;7.35;2.47;;;;;;;-143.48;69.97;77835.69;5073552;28;20379;-45
2022/09/14 04:40:20;;;;;;;9.27;2.97;;;;;;;-143.48;70.19;77845.59;5073907;28;20115;-44
2022/09/14 04:42:46;;;;;;;7.88;3.00;;;;;;;-143.48;70.29;77841.63;5073582;28;20016;-45
2022/09/14 04:45:11;;;;;;;10.30;2.88;;;;;;;-143.48;70.57;77833.69;5073596;28;20035;-43
2022/09/14 04:47:37;;;;;;;9.65;2.90;;;;;;;-143.48;70.76;77833.69;5074110;28;20051;-45
2022/09/14 04:50:04;;;;;;;7.95;2.92;;;;;;;-143.48;70.46;77835.69;5073732;28;20513;-46
2022/09/14 04:52:30;;;;;;;7.28;2.85;;;;;;;-143.48;70.21;77833.69;5074091;28;20074;-43
2022/09/14 04:54:55;;;;;;;9.48;2.97;;;;;;;-143.48;70.13;77831.72;5055437;28;20494;-45
2022/09/14 04:57:20;;;;;;;5.95;2.70;;;;;;;-143.48;69.76;77825.78;5073694;28;20020;-45
2022/09/14 04:59:46;;;;;;;10.02;3.20;;;;;;;-143.48;70.12;77831.72;5073763;28;20099;-43
2022/09/14 05:02:12;;;;;;;6.43;2.72;;;;;;;-143.48;70.04;77817.84;5056104;28;20039;-47
2022/09/14 05:04:39;;;;;;;12.48;3.00;;;;;;;-143.48;69.84;77827.75;5055853;28;20025;-44
2022/09/14 05:07:05;;;;;;;8.75;2.85;;;;;;;-143.48;69.98;77843.63;5055487;28;20059;-42
2022/09/14 05:09:31;;;;;;;8.70;3.03;;;;;;;-143.48;70.40;77825.78;5055445;28;20390;-42
2022/09/14 05:12:00;;;;;;;11.50;2.85;;;;;;;-143.48;69.92;77817.84;5073389;28;20063;-43
2022/09/14 05:14:26;;;;;;;6.20;3.00;;;;;;;-143.48;69.46;77827.75;5074004;28;20024;-43
2022/09/14 05:16:52;;;;;;;7.22;3.10;;;;;;;-143.48;70.08;77831.72;5055402;28;20169;-43
2022/09/14 05:19:22;;;;;;;7.65;2.90;;;;;;;-143.48;70.02;77827.75;5055341;28;20166;-44
2022/09/14 05:21:50;;;;;;;8.40;3.42;;;;;;;-143.48;70.67;77839.66;5055283;28;20040;-40
2022/09/14 05:24:17;;;;;;;8.73;3.00;;;;;;;-143.48;70.53;77829.75;5059143;28;20081;-41
2022/09/14 05:26:44;;;;;;;6.47;2.92;;;;;;;-143.48;69.92;77809.91;5042626;28;20025;-43
2022/09/14 05:29:14;;;;;;;6.90;3.47;;;;;;;-143.48;68.95;77809.91;5059814;28;20060;-42
2022/09/14 05:31:39;;;;;;;9.77;2.97;;;;;;;-143.48;68.97;77794.03;5042477;28;20025;-41
2022/09/14 05:34:05;;;;;;;8.43;3.30;;;;;;;-143.48;68.63;77801.97;5076946;28;20031;-41
2022/09/14 05:36:30;;;;;;;7.95;3.38;;;;;;;-143.48;68.93;77796.03;5077083;28;20028;-43
2022/09/14 05:38:56;;;;;;;9.38;3.40;;;;;;;-143.48;68.54;77813.88;5077039;28;20352;-44
2022/09/14 05:41:22;;;;;;;9.90;3.10;;;;;;;-143.48;69.22;77821.81;5076725;28;20108;-44
2022/09/14 05:43:48;;;;;;;8.68;3.50;;;;;;;-143.48;68.49;77800.00;5076857;28;20060;-43
2022/09/14 05:46:16;;;;;;;9.68;3.00;;;;;;;-143.48;68.22;77782.16;5077261;28;20051;-42
2022/09/14 05:48:42;;;;;;;10.70;3.47;;;;;;;-143.48;67.73;77780.16;5076599;28;20035;-43
2022/09/14 05:51:12;;;;;;;8.70;3.10;;;;;;;-143.48;67.31;77782.16;5076801;28;20103;-43
2022/09/14 05:53:38;;;;;;;8.70;3.20;;;;;;;-143.48;67.99;77790.06;5058567;28;20462;-43
2022/09/14 05:56:06;;;;;;;7.65;3.10;;;;;;;-143.48;68.67;77792.06;5058418;28;20030;-43
2022/09/14 05:58:33;;;;;;;11.05;3.33;;;;;;;-143.48;68.53;77770.25;5076455;28;20028;-43
2022/09/14 06:01:09;;;;;;;6.60;3.17;;;;;;;-143.48;68.43;77774.22;5076328;28;20020;-43
2022/09/14 06:03:35;;;;;;;6.80;3.10;;;;;;;-143.48;68.53;77776.19;5076535;28;20374;-44
2022/09/14 06:06:01;;;;;;;7.47;3.00;;;;;;;-143.48;68.47;77796.03;5058571;28;20103;-42
2022/09/14 06:08:27;;;;;;;10.65;3.20;;;;;;;-143.48;68.69;77794.03;5076491;28;20042;-43
2022/09/14 06:10:53;;;;;;;7.80;2.92;;;;;;;-143.48;67.60;77809.91;5076166;28;20526;-43
2022/09/14 06:13:18;;;;;;;10.18;3.30;;;;;;;-143.48;67.84;77801.97;5076562;28;20033;-43
2022/09/14 06:15:43;;;;;;;14.25;3.20;;;;;;;-143.48;67.68;77786.13;5075933;28;20095;-42
2022/09/14 06:18:09;;;;;;;11.07;3.33;;;;;;;-143.48;67.07;77776.19;5075887;28;20020;-43
2022/09/14 06:20:34;;;;;;;5.50;3.10;;;;;;;-143.48;66.46;77762.31;5075929;28;20040;-43
2022/09/14 06:22:59;;;;;;;15.27;3.60;;;;;;;-143.48;66.13;77786.13;5075800;28;20095;-43
2022/09/14 06:25:24;;;;;;;11.40;3.90;;;;;;;-143.48;66.76;77778.19;5075776;28;20023;-44
2022/09/14 06:27:53;;;;;;;11.45;3.75;;;;;;;-143.48;66.11;77744.47;5075851;28;20320;-44
2022/09/14 06:30:19;;;;;;;11.95;3.38;;;;;;;-143.48;65.39;77728.59;5075826;28;20040;-43
2022/09/14 06:32:44;;;;;;;8.23;3.50;;;;;;;-143.48;66.26;77782.16;5076446;28;20043;-44
2022/09/14 06:35:10;;;;;;;8.27;4.07;;;;;;;-143.48;66.01;77766.28;5075305;28;20028;-43
2022/09/14 06:37:35;;;;;;;9.63;3.30;;;;;;;-143.48;66.06;77772.22;5075383;28;20020;-44
2022/09/14 06:40:00;;;;;;;9.48;3.70;;;;;;;-143.48;65.64;77742.50;5075588;28;20431;-44
2022/09/14 06:42:28;;;;;;;8.20;3.60;;;;;;;-143.48;65.17;77762.31;5075918;28;20021;-43
2022/09/14 06:44:53;;;;;;;12.88;3.65;;;;;;;-143.48;64.91;77746.44;5075468;28;20044;-44
2022/09/14 06:47:19;;;;;;;13.32;3.38;;;;;;;-143.48;64.70;77716.72;5075560;28;20475;-43
2022/09/14 06:49:44;;;;;;;10.60;3.50;;;;;;;-143.48;64.75;77742.50;5075769;28;20028;-44
2022/09/14 06:52:09;;;;;;;12.77;3.33;;;;;;;-143.48;64.43;77754.38;5075534;28;20025;-45
2022/09/14 06:54:34;;;;;;;10.65;3.25;;;;;;;-143.48;64.78;77742.50;5075725;28;20370;-44
2022/09/14 06:57:00;;;;;;;12.20;3.47;;;;;;;-143.48;64.02;77736.53;5075357;28;20058;-42
2022/09/14 06:59:25;;;;;;;10.68;2.67;;;;;;;-143.48;64.38;77756.38;5075682;28;20485;-44
2022/09/14 07:01:51;;;;;;;12.40;2.50;;;;;;;-143.48;64.65;77760.34;5075512;28;20433;-44
2022/09/14 07:04:17;;;;;;;11.10;2.90;;;;;;;-143.48;64.51;77756.38;5075415;28;20028;-41
2022/09/14 07:06:45;;;;;;;6.72;2.70;;;;;;;-143.48;64.04;77752.41;5057243;28;20024;-44
2022/09/14 07:09:11;;;;;;;9.52;2.65;;;;;;;-143.48;64.10;77738.53;5075339;28;20031;-44
2022/09/14 07:11:37;;;;;;;11.05;2.63;;;;;;;-143.48;64.41;77744.47;5075159;28;20066;-43
2022/09/14 07:14:04;;;;;;;9.23;2.40;;;;;;;-143.48;64.01;77734.56;5075070;28;20025;-44
2022/09/14 07:16:31;;;;;;;6.13;2.35;;;;;;;-143.48;63.59;77708.78;5074932;28;20021;-48
2022/09/14 07:19:00;;;;;;;14.73;2.75;;;;;;;-143.48;63.84;77734.56;5075021;28;20107;-44
2022/09/14 07:21:26;;;;;;;10.40;2.70;;;;;;;-143.48;63.75;77702.84;5075121;28;20378;-43
2022/09/14 07:23:52;;;;;;;11.63;2.72;;;;;;;-143.48;63.23;77690.94;5075140;28;20024;-44
2022/09/14 07:26:20;;;;;;;5.47;2.33;;;;;;;-143.48;62.63;77684.97;5075468;28;20032;-44
2022/09/14 07:28:49;;;;;;;6.47;2.28;;;;;;;-143.48;63.24;77681.03;5057522;28;20032;-44
2022/09/14 07:31:21;;;;;;;5.90;2.13;;;;;;;-143.48;62.33;77716.72;5075229;28;20122;-44
2022/09/14 07:33:47;;;;;;;5.82;2.00;;;;;;;-143.48;61.50;77686.97;5074838;28;20067;-45
2022/09/14 07:36:13;;;;;;;5.50;2.08;;;;;;;-143.48;61.39;77655.25;5074712;28;20033;-45
2022/09/14 07:38:40;;;;;;;5.57;2.10;;;;;;;-143.48;60.51;77653.25;5074743;28;20483;-44
2022/09/14 07:41:05;;;;;;;5.93;2.10;;;;;;;-143.48;60.06;77617.56;5074722;28;20099;-45
2022/09/14 07:43:31;;;;;;;8.13;2.22;;;;;;;-143.48;60.80;77661.19;5074404;28;20044;-44
2022/09/14 07:45:56;;;;;;;7.65;2.10;;;;;;;-143.48;60.84;77637.41;5073475;28;20035;-43
2022/09/14 07:48:22;;;;;;;7.78;2.20;;;;;;;-143.48;59.80;77633.44;5074460;28;20427;-45
2022/09/14 07:50:58;;;;;;;11.18;2.45;;;;;;;-143.48;59.80;77635.41;5074388;28;20141;-43
2022/09/14 07:53:25;;;;;;;9.73;2.40;;;;;;;-143.48;60.13;77643.34;5039910;28;20040;-43
2022/09/14 07:55:50;;;;;;;12.52;2.20;;;;;;;-143.48;60.03;77623.50;5056320;28;20071;-43
2022/09/14 07:58:16;;;;;;;7.25;2.65;;;;;;;-143.48;59.98;77613.59;5074326;28;20024;-42
2022/09/14 08:00:43;;;;;;;4.68;2.22;;;;;;;-143.48;60.46;77651.28;5074493;28;20451;-43
2022/09/14 08:03:09;;;;;;;6.85;2.50;;;;;;;-143.48;60.24;77633.44;5074237;28;20115;-43
2022/09/14 08:05:34;;;;;;;7.03;2.55;;;;;;;-143.48;60.10;77627.47;5074216;28;20020;-43
2022/09/14 08:08:00;;;;;;;8.13;2.20;;;;;;;-143.48;60.27;77649.28;5074077;28;20016;-44
2022/09/14 08:10:25;;;;;;;7.35;2.50;;;;;;;-143.48;60.96;77647.31;5074725;28;20038;-45
2022/09/14 08:12:54;;;;;;;10.30;2.75;;;;;;;-143.48;60.66;77633.44;5073910;28;20063;-43
2022/09/14 08:15:22;;;;;;;8.57;2.58;;;;;;;-143.48;60.54;77611.63;5074029;28;20103;-43
2022/09/14 08:17:48;;;;;;;6.93;2.33;;;;;;;-143.48;59.56;77573.94;5073731;28;20043;-45
2022/09/14 08:20:15;;;;;;;10.82;2.47;;;;;;;-143.48;58.23;77568.00;5073716;28;20039;-41
2022/09/14 08:22:42;;;;;;;8.18;2.47;;;;;;;-143.48;60.03;77641.38;5073925;28;20024;-43
2022/09/14 08:25:08;;;;;;;7.90;2.30;;;;;;;-143.48;58.53;77591.78;5055668;28;20016;-44
2022/09/14 08:27:33;;;;;;;8.88;2.17;;;;;;;-143.48;59.17;77591.78;5073450;28;20028;-44
2022/09/14 08:29:58;;;;;;;7.95;2.30;;;;;;;-143.48;59.01;77597.75;5073879;28;20016;-44
2022/09/14 08:32:23;;;;;;;9.85;2.10;;;;;;;-143.48;58.14;77583.84;5073886;28;20115;-43
2022/09/14 08:34:51;;;;;;;9.13;2.80;;;;;;;-143.48;58.69;77601.72;5073946;28;20451;-42
2022/09/14 08:37:16;;;;;;;8.73;2.25;;;;;;;-143.48;59.22;77575.94;5073686;28;20017;-44
2022/09/14 08:39:41;;;;;;;5.97;2.25;;;;;;;-143.48;59.43;77571.97;5073399;28;20040;-42
2022/09/14 08:42:14;;;;;;;6.40;2.25;;;;;;;-143.48;59.47;77577.91;5073716;28;20024;-44
2022/09/14 08:44:43;;;;;;;6.82;2.28;;;;;;;-143.48;59.02;77546.19;5056178;28;20493;-44
2022/09/14 08:47:14;;;;;;;7.50;2.35;;;;;;;-143.48;59.20;77558.09;5073350;28;20047;-43
2022/09/14 08:49:47;;;;;;;7.53;2.30;;;;;;;-143.48;59.55;77530.31;5073589;28;20455;-44
2022/09/14 08:52:21;;;;;;;10.43;2.60;;;;;;;-143.48;59.31;77534.28;5073571;28;20031;-43
2022/09/14 08:54:50;;;;;;;8.93;2.42;;;;;;;-143.48;60.16;77575.94;5073468;28;20070;-45
2022/09/14 08:57:21;;;;;;;11.23;2.17;;;;;;;-143.48;59.94;77536.28;5072775;28;20494;-42
2022/09/14 08:59:58;;;;;;;13.45;2.42;;;;;;;-143.48;59.96;77522.38;5073184;28;20386;-43
2022/09/14 09:02:37;;;;;;;7.78;2.33;;;;;;;-143.48;59.92;77502.56;5073744;28;20033;-44
2022/09/14 09:05:02;;;;;;;13.20;2.20;;;;;;;-143.48;59.57;77536.28;5073151;28;20048;-42
2022/09/14 09:07:41;;;;;;;7.53;2.20;;;;;;;-143.48;58.09;77524.38;5073402;28;20035;-42
2022/09/14 09:10:10;;;;;;;6.85;2.30;;;;;;;-143.48;58.45;77518.44;5073365;28;20482;-44
2022/09/14 09:12:46;;;;;;;7.60;2.05;;;;;;;-143.48;57.59;77488.69;5072415;28;20045;-43
2022/09/14 09:15:26;;;;;;;7.88;2.15;;;;;;;-143.48;57.03;77480.75;5072610;28;20036;-43
2022/09/14 09:17:57;;;;;;;11.25;2.47;;;;;;;-143.48;56.49;77464.88;5072988;28;20020;-46
2022/09/14 09:20:31;;;;;;;9.00;2.40;;;;;;;-143.48;56.20;77500.59;5073149;28;20028;-43
2022/09/14 09:23:13;;;;;;;8.25;2.30;;;;;;;-143.48;56.40;77486.69;5073404;28;20107;-44
2022/09/14 09:26:02;;;;;;;9.30;2.15;;;;;;;-143.48;57.54;77480.75;5073357;28;20032;-43
2022/09/14 09:28:28;;;;;;;7.90;2.53;;;;;;;-143.48;56.67;77476.78;5072742;28;20036;-43
2022/09/14 09:31:03;;;;;;;9.88;2.25;;;;;;;-143.48;56.77;77456.97;5072950;28;20024;-44
2022/09/14 09:33:29;;;;;;;9.60;2.33;;;;;;;-143.48;56.22;77474.81;5073144;28;20486;-45
2022/09/14 09:35:55;;;;;;;8.73;2.15;;;;;;;-143.48;57.31;77472.81;5072704;28;20017;-44
2022/09/14 09:38:24;;;;;;;9.35;2.70;;;;;;;-143.48;57.89;77500.59;5073110;28;20099;-45
2022/09/14 09:41:09;;;;;;;9.00;2.60;;;;;;;-143.48;58.28;77520.41;5072654;28;20048;-44
2022/09/14 09:44:02;;;;;;;15.23;2.50;;;;;;;-143.48;57.11;77496.63;5072219;28;20154;-43
2022/09/14 09:46:33;;;;;;;7.45;2.45;;;;;;;-143.48;56.70;77464.88;5055299;28;20486;-45
2022/09/14 09:49:02;;;;;;;8.00;2.30;;;;;;;-143.48;56.31;77449.03;5055262;28;20354;-43
2022/09/14 09:51:31;;;;;;;9.10;2.30;;;;;;;-143.48;56.07;77437.13;5072832;28;20032;-43
2022/09/14 09:54:11;;;;;;;7.60;2.22;;;;;;;-143.48;55.65;77427.22;5072286;28;20032;-45
2022/09/14 09:56:56;;;;;;;17.48;2.30;;;;;;;-143.48;54.79;77431.19;5072011;28;20026;-44
2022/09/14 09:59:36;;;;;;;8.15;2.00;;;;;;;-143.48;56.67;77468.84;5072658;28;20040;-43
2022/09/14 10:02:29;;;;;;;11.13;2.20;;;;;;;-143.48;55.90;77435.16;5072069;28;20569;-43
2022/09/14 10:05:08;;;;;;;10.15;2.03;;;;;;;-143.48;55.79;77399.47;5038026;28;20033;-42
2022/09/14 10:07:49;;;;;;;9.20;2.00;;;;;;;-143.48;55.34;77417.31;5038762;28;20035;-42
2022/09/14 10:10:17;;;;;;;10.57;2.53;;;;;;;-143.48;55.20;77395.50;5075965;28;20406;-44
2022/09/14 10:12:50;;;;;;;9.93;1.98;;;;;;;-143.48;55.49;77401.44;5076013;28;20048;-44
2022/09/14 10:15:29;;;;;;;6.78;1.98;;;;;;;-143.48;55.50;77419.28;5076346;28;20036;-44
2022/09/14 10:17:59;;;;;;;9.23;2.00;;;;;;;-143.48;55.07;77417.31;5076675;28;20024;-45
2022/09/14 10:20:25;;;;;;;8.07;1.70;;;;;;;-143.48;55.64;77413.34;5057934;28;20056;-44
2022/09/14 10:22:51;;;;;;;10.45;1.90;;;;;;;-143.48;54.39;77393.50;5058326;28;20048;-45
2022/09/14 10:25:16;;;;;;;6.80;1.60;;;;;;;-143.48;54.15;77405.41;5076109;28;20024;-43
2022/09/14 10:27:53;;;;;;;11.10;1.60;;;;;;;-143.48;53.95;77395.50;5075723;28;20032;-44
2022/09/14 10:30:22;;;;;;;8.80;1.63;;;;;;;-143.48;54.84;77395.50;5075372;28;20020;-44
2022/09/14 10:33:17;;;;;;;9.80;2.28;;;;;;;-143.48;54.97;77369.72;5075740;28;20502;-45
2022/09/14 10:35:55;;;;;;;7.18;1.98;;;;;;;-143.48;54.95;77371.69;5054362;28;20033;-44
2022/09/14 10:38:45;;;;;;;9.15;2.00;;;;;;;-143.48;56.15;77373.69;5075664;28;20027;-42
2022/09/14 10:41:30;;;;;;;8.50;2.63;;;;;;;-143.48;54.71;77377.66;5057864;28;20498;-41
2022/09/14 10:44:07;;;;;;;7.50;2.10;;;;;;;-143.48;55.38;77391.53;5075858;28;20024;-46
2022/09/14 10:46:44;;;;;;;8.70;2.25;;;;;;;-143.48;57.27;77445.06;5076512;28;20032;-41
2022/09/14 10:49:18;;;;;;;8.30;2.20;;;;;;;-143.48;57.70;77431.19;5075463;28;20021;-46
2022/09/14 10:51:49;;;;;;;10.43;2.50;;;;;;;-143.48;57.63;77409.38;5075387;28;20178;-41
2022/09/14 10:54:50;;;;;;;6.70;1.80;;;;;;;-143.48;55.20;77425.25;5074952;28;20349;-42
2022/09/14 10:57:42;;;;;;;12.40;2.22;;;;;;;-143.48;54.47;77405.41;5058064;28;20475;-42
2022/09/14 11:00:14;;;;;;;7.97;1.58;;;;;;;-143.48;54.37;77351.88;5075700;28;20069;-44
2022/09/14 11:03:02;;;;;;;6.22;1.70;;;;;;;-143.48;53.72;77387.56;5076280;28;20028;-45
2022/09/14 11:05:43;;;;;;;9.23;1.50;;;;;;;-143.48;53.43;77397.47;5075137;28;20024;-45
2022/09/14 11:08:11;;;;;;;5.85;1.40;;;;;;;-143.48;53.76;77393.50;5075094;28;20024;-43
2022/09/14 11:10:59;;;;;;;12.18;1.95;;;;;;;-143.48;53.97;77351.88;5075753;28;20420;-44
2022/09/14 11:13:33;;;;;;;6.90;1.60;;;;;;;-143.48;53.82;77330.06;5075496;28;20037;-45
2022/09/14 11:16:49;;;;;;;10.15;1.80;;;;;;;-143.48;52.63;77339.97;5075215;28;20029;-44
2022/09/14 11:19:27;;;;;;;5.22;1.50;;;;;;;-143.48;53.09;77326.09;5019917;28;20090;-42
2022/09/14 11:22:14;;;;;;;6.35;1.63;;;;;;;-143.48;52.43;77322.13;5074978;28;20379;-44
2022/09/14 11:24:55;;;;;;;10.93;1.98;;;;;;;-143.48;52.26;77302.31;5075081;28;20028;-42
2022/09/14 11:27:53;;;;;;;7.28;1.60;;;;;;;-143.48;52.96;77347.91;5074977;28;20028;-42
2022/09/14 11:30:22;;;;;;;10.23;2.05;;;;;;;-143.48;51.69;77272.56;5053489;28;20041;-43
2022/09/14 11:32:54;;;;;;;8.80;1.73;;;;;;;-143.48;51.16;77266.63;5075324;28;20112;-42